Time;durP1;ratioP1;P1;durP2;ratioP2;P2;SDS_P1;SDS_P2;PMS_P1;PMS_P2;Temp;Humidity;BMP_temperature;BMP_pressure;BME280_temperature;BME280_humidity;BME280_pressure;Samples;Min_cycle;Max_cycle;Signal;HPM_P1;HPM_P2
2022/04/16 00:01:56;;;;;;;;;;;;;;;;;;;;;
2022/04/16 00:06:01;;;;;;;;;;;;;;;;;;;;;
2022/04/16 00:10:01;;;;;;;16.30;8.80;;;;;;;4.71;73.06;99963.09;102396;1318;22614;-86
2022/04/16 00:13:50;;;;;;;20.40;9.20;;;;;;;4.67;73.64;99972.04;102311;1319;22612;-84
2022/04/16 00:20:27;;;;;;;;;;;;;;;;;;;;;
2022/04/16 00:23:59;;;;;;;20.10;9.40;;;;;;;4.50;73.40;99980.53;103380;1300;22569;-86
2022/04/16 00:27:57;;;;;;;;;;;;;;;;;;;;;
2022/04/16 00:31:25;;;;;;;;;;;;;;;;;;;;;
2022/04/16 00:34:45;;;;;;;;;;;;;;;;;;;;;
2022/04/16 00:38:42;;;;;;;16.40;8.40;;;;;;;4.43;73.63;99985.88;104445;1303;22588;-89
2022/04/16 00:41:21;;;;;;;;;;;;;;;;;;;;;
2022/04/16 00:44:23;;;;;;;17.80;7.90;;;;;;;4.48;73.53;99991.52;104837;1298;22576;-84
2022/04/16 00:48:22;;;;;;;;;;;;;;;;;;;;;
2022/04/16 00:59:07;;;;;;;13.20;5.60;;;;;;;4.19;73.91;100004.80;103345;1312;22684;-84
2022/04/16 01:02:29;;;;;;;14.30;6.70;;;;;;;4.10;73.88;100005.25;103403;1314;22885;-88
2022/04/16 01:05:40;;;;;;;;;;;;;;;;;;;;;
2022/04/16 01:12:56;;;;;;;;;;;;;;;;;;;;;
2022/04/16 01:16:36;;;;;;;;;;;;;;;;;;;;;
2022/04/16 01:20:27;;;;;;;;;;;;;;;;;;;;;
2022/04/16 01:27:45;;;;;;;;;;;;;;;;;;;;;
2022/04/16 01:31:50;;;;;;;12.80;5.80;;;;;;;3.56;74.13;100048.03;102412;1324;23325;-83
2022/04/16 01:34:59;;;;;;;15.60;6.10;;;;;;;3.48;74.13;100048.09;102862;1316;27932;-82
2022/04/16 01:38:28;;;;;;;;;;;;;;;;;;;;;
2022/04/16 01:41:44;;;;;;;;;;;;;;;;;;;;;
2022/04/16 01:45:05;;;;;;;;;;;;;;;;;;;;;
2022/04/16 01:49:05;;;;;;;11.70;5.40;;;;;;;3.31;74.50;100051.20;103451;1312;22820;-86
2022/04/16 01:51:57;;;;;;;10.00;4.00;;;;;;;3.25;74.28;100046.78;103506;1312;22903;-84
2022/04/16 01:55:11;;;;;;;;;;;;;;;;;;;;;
2022/04/16 01:58:51;;;;;;;;;;;;;;;;;;;;;
2022/04/16 02:03:02;;;;;;;11.10;3.80;;;;;;;3.18;74.21;100052.77;103710;1312;22620;-82
2022/04/16 02:06:26;;;;;;;10.50;4.30;;;;;;;3.12;73.99;100054.70;104052;1306;22771;-84
2022/04/16 02:08:53;;;;;;;10.30;4.60;;;;;;;3.05;74.30;100061.02;103971;1303;22876;-82
2022/04/16 02:11:43;;;;;;;8.90;3.60;;;;;;;2.99;74.15;100061.19;104365;1294;22565;-84
2022/04/16 02:15:29;;;;;;;9.70;3.60;;;;;;;2.92;74.13;100066.63;105327;1294;24139;-82
2022/04/16 02:18:16;;;;;;;10.20;4.20;;;;;;;2.90;74.48;100067.73;104626;1294;24261;-86
2022/04/16 02:21:38;;;;;;;;;;;;;;;;;;;;;
2022/04/16 02:25:41;;;;;;;6.10;2.80;;;;;;;2.84;74.14;100079.64;104780;1295;24408;-83
2022/04/16 02:28:09;;;;;;;;;;;;;;;;;;;;;
2022/04/16 02:31:13;;;;;;;12.30;4.30;;;;;;;2.86;74.02;100089.64;105483;1290;22554;-83
2022/04/16 02:34:00;;;;;;;9.10;3.60;;;;;;;2.86;73.84;100091.92;105177;1290;22606;-80
2022/04/16 02:38:07;;;;;;;9.10;3.40;;;;;;;2.85;74.03;100090.70;105568;1285;22538;-85
2022/04/16 02:41:04;;;;;;;7.80;3.20;;;;;;;2.83;74.16;100091.81;106071;1283;25301;-82
2022/04/16 02:48:05;;;;;;;;;;;;;;;;;;;;;
2022/04/16 02:51:46;;;;;;;;;;;;;;;;;;;;;
2022/04/16 02:55:21;;;;;;;;;;;;;;;;;;;;;
2022/04/16 02:59:47;;;;;;;8.10;2.80;;;;;;;2.67;73.84;100106.60;104633;1294;24357;-85
2022/04/16 03:02:49;;;;;;;;;;;;;;;;;;;;;
2022/04/16 03:06:29;;;;;;;;;;;;;;;;;;;;;
2022/04/16 03:13:53;;;;;;;7.60;3.10;;;;;;;2.56;73.87;100116.35;103150;1312;545263;-82
2022/04/16 03:21:12;;;;;;;7.60;2.40;;;;;;;2.59;74.00;100124.90;106677;1280;25311;-82
2022/04/16 03:27:44;;;;;;;;;;;;;;;;;;;;;
2022/04/16 03:31:43;;;;;;;;;;;;;;;;;;;;;
2022/04/16 03:38:04;;;;;;;7.00;2.70;;;;;;;2.39;73.84;100139.59;104862;1290;23420;-82
2022/04/16 03:40:48;;;;;;;7.30;3.50;;;;;;;2.39;73.93;100144.85;104922;1290;23216;-86
2022/04/16 03:44:10;;;;;;;;;;;;;;;;;;;;;
2022/04/16 03:47:11;;;;;;;8.60;3.20;;;;;;;2.40;74.01;100154.13;104757;1294;23469;-83
2022/04/16 03:50:04;;;;;;;7.30;3.00;;;;;;;2.40;73.75;100153.45;105111;1294;22598;-83
2022/04/16 03:53:11;;;;;;;;;;;;;;;;;;;;;
2022/04/16 04:02:35;;;;;;;;;;;;;;;;;;;;;
2022/04/16 04:05:27;;;;;;;;;;;;;;;;;;;;;
2022/04/16 04:09:07;;;;;;;;;;;;;;;;;;;;;
2022/04/16 04:12:02;;;;;;;5.70;1.80;;;;;;;2.14;73.67;100185.25;104576;1291;24360;-85
2022/04/16 04:14:59;;;;;;;8.10;2.60;;;;;;;2.11;73.52;100189.20;106092;1287;22747;-84
2022/04/16 04:18:37;;;;;;;8.70;2.50;;;;;;;2.09;73.94;100195.19;105493;1285;23350;-84
2022/04/16 04:21:40;;;;;;;;;;;;;;;;;;;;;
2022/04/16 04:24:50;;;;;;;5.90;1.60;;;;;;;2.07;73.76;100198.92;106166;1284;24374;-82
2022/04/16 04:27:43;;;;;;;7.30;2.10;;;;;;;2.04;73.88;100202.33;106365;1283;22594;-84
2022/04/16 04:30:35;;;;;;;6.30;2.10;;;;;;;1.99;73.69;100208.04;105929;1284;22629;-80
2022/04/16 04:33:01;;;;;;;9.40;2.20;;;;;;;1.97;73.73;100214.05;106304;1284;23324;-81
2022/04/16 04:36:29;;;;;;;;;;;;;;;;;;;;;
2022/04/16 04:43:27;;;;;;;7.10;2.40;;;;;;;1.96;73.76;100230.75;104136;1303;23433;-87
2022/04/16 04:46:26;;;;;;;;;;;;;;;;;;;;;
2022/04/16 04:49:33;;;;;;;6.70;2.30;;;;;;;1.87;73.71;100240.39;104627;1300;25257;-82
2022/04/16 04:52:20;;;;;;;;;;;;;;;;;;;;;
2022/04/16 04:55:35;;;;;;;;;;;;;;;;;;;;;
2022/04/16 04:58:26;;;;;;;7.70;2.10;;;;;;;1.90;73.75;100253.52;103881;1300;22554;-87
2022/04/16 05:01:32;;;;;;;10.70;3.10;;;;;;;1.87;73.62;100257.44;104153;1300;25426;-84
2022/04/16 05:08:30;;;;;;;8.30;2.10;;;;;;;1.85;73.61;100264.33;103357;1309;24435;-80
2022/04/16 05:15:17;;;;;;;7.10;2.20;;;;;;;1.74;73.56;100272.75;104231;1296;22632;-81
2022/04/16 05:17:59;;;;;;;8.70;2.50;;;;;;;1.71;73.72;100277.73;104927;1294;24252;-83
2022/04/16 05:20:31;;;;;;;6.90;2.10;;;;;;;1.71;73.73;100283.51;105118;1292;23548;-81
2022/04/16 05:23:20;;;;;;;9.40;2.50;;;;;;;1.74;73.84;100281.19;105012;1294;22560;-80
2022/04/16 05:26:42;;;;;;;;;;;;;;;;;;;;;
2022/04/16 05:33:16;;;;;;;8.00;1.90;;;;;;;1.86;73.74;100289.41;105295;1294;23030;-81
2022/04/16 05:36:44;;;;;;;7.60;2.20;;;;;;;1.87;73.62;100295.90;104545;1297;24738;-81
2022/04/16 05:43:52;;;;;;;;;;;;;;;;;;;;;
2022/04/16 05:48:02;;;;;;;8.40;2.60;;;;;;;1.95;73.83;100305.77;104035;1298;24300;-85
2022/04/16 05:50:37;;;;;;;7.10;2.10;;;;;;;1.98;73.89;100315.20;104417;1297;25871;-83
2022/04/16 05:54:15;;;;;;;;;;;;;;;;;;;;;
2022/04/16 05:57:51;;;;;;;8.20;1.80;;;;;;;2.09;73.93;100318.16;104389;1293;24233;-81
2022/04/16 06:00:34;;;;;;;8.00;2.40;;;;;;;2.06;73.65;100324.55;104375;1293;22578;-84
2022/04/16 06:03:44;;;;;;;;;;;;;;;;;;;;;
2022/04/16 06:06:46;;;;;;;;;;;;;;;;;;;;;
2022/04/16 06:09:49;;;;;;;8.60;2.40;;;;;;;2.21;73.75;100331.48;104874;1294;22572;-82
2022/04/16 06:13:37;;;;;;;8.90;3.30;;;;;;;2.24;73.85;100333.90;104582;1294;23427;-81
2022/04/16 06:16:59;;;;;;;47.60;21.80;;;;;;;2.31;73.99;100331.84;104296;1294;22567;-84
2022/04/16 06:19:49;;;;;;;;;;;;;;;;;;;;;
2022/04/16 06:23:38;;;;;;;12.00;5.00;;;;;;;2.22;73.67;100337.26;106254;1276;22780;-80
2022/04/16 06:26:35;;;;;;;10.90;4.20;;;;;;;2.26;73.60;100335.80;106391;1278;24380;-82
2022/04/16 06:30:02;;;;;;;;;;;;;;;;;;;;;
2022/04/16 06:33:48;;;;;;;;;;;;;;;;;;;;;
2022/04/16 06:36:13;;;;;;;9.20;4.70;;;;;;;2.34;73.54;100343.55;105725;1290;23619;-84
2022/04/16 06:39:30;;;;;;;;;;;;;;;;;;;;;
2022/04/16 06:42:52;;;;;;;13.30;6.70;;;;;;;2.39;73.58;100347.51;104916;1289;22576;-86
2022/04/16 06:45:56;;;;;;;8.80;3.50;;;;;;;2.40;73.80;100351.52;105930;1288;22574;-83
2022/04/16 06:49:11;;;;;;;;;;;;;;;;;;;;;
2022/04/16 06:52:41;;;;;;;;;;;;;;;;;;;;;
2022/04/16 06:56:12;;;;;;;11.00;4.40;;;;;;;2.45;73.68;100361.11;105867;1288;22911;-79
2022/04/16 06:59:26;;;;;;;;;;;;;;;;;;;;;
2022/04/16 07:02:49;;;;;;;;;;;;;;;;;;;;;
2022/04/16 07:07:05;;;;;;;19.30;9.80;;;;;;;2.45;73.53;100366.56;104932;1300;23948;-81
2022/04/16 07:10:12;;;;;;;;;;;;;;;;;;;;;
2022/04/16 07:17:25;;;;;;;;;;;;;;;;;;;;;
2022/04/16 07:20:27;;;;;;;10.30;4.50;;;;;;;2.57;73.51;100376.52;103567;1306;25125;-82
2022/04/16 07:23:41;;;;;;;28.60;20.60;;;;;;;2.57;73.42;100371.80;103195;1308;22594;-80
2022/04/16 07:27:01;;;;;;;;;;;;;;;;;;;;;
2022/04/16 07:34:17;;;;;;;13.10;5.70;;;;;;;2.88;73.35;100382.27;102810;1312;26156;-80
2022/04/16 07:41:51;;;;;;;;;;;;;;;;;;;;;
2022/04/16 07:45:36;;;;;;;8.70;3.80;;;;;;;3.00;73.49;100386.60;103665;1306;22577;-83
2022/04/16 07:48:25;;;;;;;;;;;;;;;;;;;;;
2022/04/16 07:55:31;;;;;;;;;;;;;;;;;;;;;
2022/04/16 07:58:47;;;;;;;;;;;;;;;;;;;;;
2022/04/16 08:01:52;;;;;;;;;;;;;;;;;;;;;
2022/04/16 08:05:40;;;;;;;;;;;;;;;;;;;;;
2022/04/16 08:09:00;;;;;;;;;;;;;;;;;;;;;
2022/04/16 08:13:12;;;;;;;16.00;5.60;;;;;;;4.08;72.32;100408.70;103029;1308;24396;-79
2022/04/16 08:15:23;;;;;;;16.20;5.50;;;;;;;4.03;72.44;100404.77;102978;1309;22611;-82
2022/04/16 08:18:22;;;;;;;;;;;;;;;;;;;;;
2022/04/16 08:21:30;;;;;;;9.10;3.40;;;;;;;4.33;72.32;100405.10;104003;1297;24893;-81
2022/04/16 08:24:28;;;;;;;12.00;4.60;;;;;;;4.51;71.94;100402.67;104417;1297;22559;-80
2022/04/16 08:27:20;;;;;;;11.20;5.00;;;;;;;4.78;71.70;100405.84;103862;1297;22552;-85
2022/04/16 08:30:07;;;;;;;13.50;9.30;;;;;;;4.96;70.87;100406.77;104285;1297;23218;-84
2022/04/16 08:34:20;;;;;;;13.20;5.20;;;;;;;5.12;70.86;100408.81;104412;1290;24706;-81
2022/04/16 08:37:30;;;;;;;13.60;5.30;;;;;;;5.36;71.16;100406.88;103622;1300;22729;-85
2022/04/16 08:41:10;;;;;;;;;;;;;;;;;;;;;
2022/04/16 08:44:04;;;;;;;;;;;;;;;;;;;;;
2022/04/16 08:46:49;;;;;;;14.80;8.00;;;;;;;5.79;69.60;100412.46;103708;1297;24250;-80
2022/04/16 08:49:25;;;;;;;23.40;9.80;;;;;;;5.86;70.41;100414.21;103953;1294;23016;-80
2022/04/16 08:52:25;;;;;;;;;;;;;;;;;;;;;
2022/04/16 08:55:19;;;;;;;12.60;4.80;;;;;;;6.24;70.08;100420.77;104396;1293;24082;-87
2022/04/16 08:58:05;;;;;;;16.30;6.80;;;;;;;6.03;69.14;100423.58;104133;1294;22606;-79
2022/04/16 09:01:02;;;;;;;16.40;7.10;;;;;;;5.93;69.73;100426.73;103936;1294;24313;-84
2022/04/16 09:04:19;;;;;;;21.50;7.20;;;;;;;6.13;70.26;100424.67;104172;1294;22575;-85
2022/04/16 09:07:22;;;;;;;19.70;7.00;;;;;;;6.33;69.60;100425.47;103841;1300;22765;-87
2022/04/16 09:10:27;;;;;;;19.60;6.00;;;;;;;6.32;69.04;100424.59;103602;1299;25503;-80
2022/04/16 09:13:08;;;;;;;22.00;7.60;;;;;;;6.44;70.31;100423.85;103669;1297;25268;-82
2022/04/16 09:16:01;;;;;;;;;;;;;;;;;;;;;
2022/04/16 09:19:16;;;;;;;;;;;;;;;;;;;;;
2022/04/16 09:22:26;;;;;;;14.60;4.80;;;;;;;6.75;69.38;100423.11;104339;1290;22812;-84
2022/04/16 09:25:40;;;;;;;10.40;4.00;;;;;;;6.81;69.00;100423.63;104320;1290;23940;-80
2022/04/16 09:28:28;;;;;;;8.50;3.30;;;;;;;7.15;69.68;100421.17;104397;1291;22586;-80
2022/04/16 09:31:57;;;;;;;13.70;5.30;;;;;;;7.29;69.38;100421.55;104393;1293;22853;-82
2022/04/16 09:38:35;;;;;;;17.30;7.10;;;;;;;6.54;68.69;100425.28;103390;1303;22933;-82
2022/04/16 09:41:43;;;;;;;;;;;;;;;;;;;;;
2022/04/16 09:45:44;;;;;;;21.50;7.30;;;;;;;6.94;69.79;100422.11;103804;1299;24282;-85
2022/04/16 09:47:59;;;;;;;39.40;13.90;;;;;;;7.64;68.64;100413.32;103645;1299;22666;-82
2022/04/16 09:51:01;;;;;;;;;;;;;;;;;;;;;
2022/04/16 09:53:45;;;;;;;18.20;5.90;;;;;;;8.70;67.55;100411.02;104403;1294;23010;-83
2022/04/16 09:56:55;;;;;;;8.50;3.10;;;;;;;8.91;67.77;100418.45;104373;1294;22788;-80
2022/04/16 09:59:53;;;;;;;19.60;8.30;;;;;;;8.79;67.56;100418.80;104336;1293;22560;-85
2022/04/16 10:02:52;;;;;;;;;;;;;;;;;;;;;
2022/04/16 10:05:44;;;;;;;8.40;2.90;;;;;;;8.30;67.47;100426.84;104436;1288;23051;-83
2022/04/16 10:08:40;;;;;;;11.00;6.30;;;;;;;7.94;66.94;100427.05;104942;1287;24112;-84
2022/04/16 10:15:26;;;;;;;20.90;9.40;;;;;;;8.50;68.85;100426.02;104834;1278;22561;-84
2022/04/16 10:18:44;;;;;;;19.80;6.80;;;;;;;9.08;66.28;100429.05;105747;1277;25245;-83
2022/04/16 10:21:32;;;;;;;10.60;4.30;;;;;;;9.24;66.51;100423.20;105182;1284;22693;-85
2022/04/16 10:28:07;;;;;;;9.20;3.10;;;;;;;9.98;66.71;100418.14;104623;1290;24235;-81
2022/04/16 10:31:01;;;;;;;10.70;4.20;;;;;;;10.40;66.80;100420.56;104729;1291;22747;-84
2022/04/16 10:34:55;;;;;;;15.10;5.40;;;;;;;9.80;63.45;100422.90;104530;1290;24327;-83
2022/04/16 10:38:33;;;;;;;11.70;4.00;;;;;;;8.88;65.43;100427.96;103934;1297;22608;-84
2022/04/16 10:42:11;;;;;;;7.20;3.70;;;;;;;9.28;66.12;100421.95;103084;1307;22833;-82
2022/04/16 10:44:54;;;;;;;;;;;;;;;;;;;;;
2022/04/16 10:48:35;;;;;;;9.80;4.20;;;;;;;9.82;64.37;100416.78;102508;1314;23236;-84
2022/04/16 10:51:39;;;;;;;13.80;5.90;;;;;;;9.81;64.18;100418.05;102508;1314;25348;-80
2022/04/16 10:54:34;;;;;;;10.50;3.50;;;;;;;10.05;65.42;100416.02;102189;1314;22582;-81
2022/04/16 11:00:44;;;;;;;8.20;3.40;;;;;;;10.75;62.42;100416.14;102949;1311;25443;-85
2022/04/16 11:04:07;;;;;;;8.90;3.80;;;;;;;10.07;63.68;100427.34;103312;1307;23971;-83
2022/04/16 11:06:39;;;;;;;12.60;6.10;;;;;;;10.02;64.12;100432.52;103754;1302;22601;-81
2022/04/16 11:14:06;;;;;;;;;;;;;;;;;;;;;
2022/04/16 11:17:19;;;;;;;7.40;2.80;;;;;;;10.39;65.05;100436.85;103542;1300;22676;-80
2022/04/16 11:20:45;;;;;;;;;;;;;;;;;;;;;
2022/04/16 11:24:13;;;;;;;;;;;;;;;;;;;;;
2022/04/16 11:36:58;;;;;;;6.40;2.40;;;;;;;10.35;62.68;100430.58;104734;1287;24370;-84
2022/04/16 11:39:36;;;;;;;12.10;5.90;;;;;;;10.60;63.27;100425.08;104747;1290;24533;-85
2022/04/16 11:42:41;;;;;;;14.00;7.20;;;;;;;10.70;63.59;100421.73;104568;1288;22725;-80
2022/04/16 11:45:13;;;;;;;10.20;5.80;;;;;;;10.38;62.60;100427.06;104904;1288;22743;-86
2022/04/16 11:48:24;;;;;;;8.40;4.90;;;;;;;10.03;63.33;100425.54;104792;1288;22576;-81
2022/04/16 11:51:23;;;;;;;10.20;4.50;;;;;;;9.96;63.19;100425.86;104933;1288;23000;-81
2022/04/16 11:54:31;;;;;;;;;;;;;;;;;;;;;
2022/04/16 11:57:29;;;;;;;6.50;2.60;;;;;;;10.35;61.25;100422.80;106175;1277;24415;-81
2022/04/16 12:00:31;;;;;;;5.00;2.10;;;;;;;10.59;61.64;100424.61;106124;1277;22585;-82
2022/04/16 12:03:59;;;;;;;;;;;;;;;;;;;;;
2022/04/16 12:07:14;;;;;;;;;;;;;;;;;;;;;
2022/04/16 12:10:23;;;;;;;57.10;34.20;;;;;;;10.80;59.06;100431.21;106112;1276;22549;-84
2022/04/16 12:12:53;;;;;;;24.90;15.30;;;;;;;10.37;58.00;100431.23;105787;1277;22527;-82
2022/04/16 12:15:27;;;;;;;16.50;10.10;;;;;;;9.93;61.36;100431.54;105908;1277;22892;-86
2022/04/16 12:18:23;;;;;;;;;;;;;;;;;;;;;
2022/04/16 12:21:05;;;;;;;15.90;8.20;;;;;;;10.66;60.18;100426.60;106250;1277;22554;-82
2022/04/16 12:24:09;;;;;;;15.20;6.40;;;;;;;10.92;59.75;100420.61;105965;1277;22584;-85
2022/04/16 12:26:58;;;;;;;18.60;10.00;;;;;;;11.32;59.05;100421.86;106256;1277;23146;-82
2022/04/16 12:29:52;;;;;;;34.60;18.20;;;;;;;11.15;58.36;100423.13;106169;1277;22919;-82
2022/04/16 12:32:43;;;;;;;11.00;6.50;;;;;;;10.95;58.41;100423.84;106257;1277;24310;-87
2022/04/16 12:35:24;;;;;;;7.30;3.60;;;;;;;10.60;58.35;100427.23;105955;1277;22538;-84
2022/04/16 12:38:14;;;;;;;26.60;12.10;;;;;;;10.67;60.16;100426.34;106347;1276;24243;-82
2022/04/16 12:41:36;;;;;;;12.60;5.60;;;;;;;10.87;59.34;100429.40;106352;1277;25430;-86
2022/04/16 12:44:38;;;;;;;12.10;5.40;;;;;;;10.99;59.22;100433.44;105472;1285;25680;-81
2022/04/16 12:47:23;;;;;;;16.40;7.00;;;;;;;10.81;58.34;100436.30;105157;1285;24324;-85
2022/04/16 12:49:55;;;;;;;14.60;5.60;;;;;;;10.47;59.60;100437.50;105220;1283;25457;-84
2022/04/16 12:52:37;;;;;;;;;;;;;;;;;;;;;
2022/04/16 12:55:23;;;;;;;11.70;4.70;;;;;;;10.69;59.72;100449.75;105370;1286;22550;-82
2022/04/16 12:58:22;;;;;;;16.80;7.10;;;;;;;10.77;59.41;100440.77;105737;1285;23585;-82
2022/04/16 13:01:11;;;;;;;15.10;6.20;;;;;;;10.77;58.91;100440.08;105369;1284;23949;-83
2022/04/16 13:05:08;;;;;;;9.40;3.80;;;;;;;10.78;57.67;100436.27;105337;1284;22642;-84
2022/04/16 13:07:49;;;;;;;14.40;6.70;;;;;;;10.90;58.23;100439.42;105446;1284;22667;-85
2022/04/16 13:11:15;;;;;;;6.60;2.20;;;;;;;10.76;57.27;100443.48;105542;1284;22572;-91
2022/04/16 13:14:14;;;;;;;6.40;2.30;;;;;;;10.32;58.16;100440.02;105546;1284;25697;-84
2022/04/16 13:17:13;;;;;;;11.10;4.00;;;;;;;9.84;57.99;100448.52;105303;1285;24286;-90
2022/04/16 13:19:59;;;;;;;7.80;3.00;;;;;;;9.42;58.69;100450.09;105812;1276;24213;-84
2022/04/16 13:23:10;;;;;;;7.70;2.90;;;;;;;9.73;58.36;100436.77;105841;1277;25466;-83
2022/04/16 13:25:53;;;;;;;30.90;12.80;;;;;;;10.28;59.27;100432.20;106336;1277;22541;-87
2022/04/16 13:28:45;;;;;;;12.50;5.20;;;;;;;10.70;58.29;100427.63;105815;1276;24208;-86
2022/04/16 13:31:52;;;;;;;12.60;7.70;;;;;;;10.90;58.61;100423.90;106218;1276;22666;-85
2022/04/16 13:34:37;;;;;;;12.10;7.20;;;;;;;11.31;57.99;100427.45;106021;1276;25474;-85
2022/04/16 13:37:13;;;;;;;11.50;7.10;;;;;;;11.61;56.91;100423.50;105990;1276;23214;-81
2022/04/16 13:47:08;;;;;;;8.50;3.90;;;;;;;11.05;58.27;100413.48;105655;1282;25253;-81
2022/04/16 13:50:28;;;;;;;6.80;2.50;;;;;;;11.35;58.75;100410.99;105930;1281;22601;-86
2022/04/16 13:53:56;;;;;;;;;;;;;;;;;;;;;
2022/04/16 13:57:06;;;;;;;;;;;;;;;;;;;;;
2022/04/16 14:00:16;;;;;;;22.60;11.00;;;;;;;10.30;56.79;100411.08;105517;1282;22580;-84
2022/04/16 14:03:08;;;;;;;10.40;5.20;;;;;;;10.16;57.18;100407.64;105467;1282;22810;-88
2022/04/16 14:06:37;;;;;;;;;;;;;;;;;;;;;
2022/04/16 14:09:47;;;;;;;18.20;9.60;;;;;;;10.91;57.81;100404.42;104961;1288;22581;-85
2022/04/16 14:12:41;;;;;;;;;;;;;;;;;;;;;
2022/04/16 14:16:36;;;;;;;14.60;8.10;;;;;;;10.73;57.08;100409.64;104267;1294;22764;-87
2022/04/16 14:18:56;;;;;;;21.60;9.00;;;;;;;10.43;56.51;100410.79;104432;1294;22714;-82
2022/04/16 14:21:58;;;;;;;21.20;17.10;;;;;;;10.33;57.67;100413.45;104010;1294;22635;-82
2022/04/16 14:24:49;;;;;;;12.60;7.80;;;;;;;10.23;57.71;100408.58;104504;1291;25515;-86
2022/04/16 14:29:08;;;;;;;15.70;7.40;;;;;;;10.56;57.92;100410.89;105303;1290;22612;-89
2022/04/16 14:32:06;;;;;;;12.50;4.90;;;;;;;11.34;57.79;100403.04;104623;1293;22605;-86
2022/04/16 14:35:55;;;;;;;;;;;;;;;;;;;;;
2022/04/16 14:48:18;;;;;;;18.80;8.00;;;;;;;11.97;58.05;100398.89;106324;1274;22560;-90
2022/04/16 14:59:07;;;;;;;;;;;;;;;;;;;;;
2022/04/16 15:10:41;;;;;;;;;;;;;;;;;;;;;
2022/04/16 15:14:45;;;;;;;10.90;4.90;;;;;;;11.50;55.94;100402.02;103018;1315;24260;-88
2022/04/16 15:38:33;;;;;;;;;;;;;;;;;;;;;
2022/04/16 15:54:49;;;;;;;11.00;6.70;;;;;;;12.48;52.79;100382.52;104044;1296;24216;-89
2022/04/16 16:14:36;;;;;;;11.80;5.30;;;;;;;12.04;53.57;100392.20;106053;1279;23024;-91
2022/04/16 17:12:42;;;;;;;;;;;;;;;;;;;;;
2022/04/16 17:24:12;;;;;;;;;;;;;;;;;;;;;
2022/04/16 17:28:11;;;;;;;25.30;8.80;;;;;;;7.39;55.13;100426.70;104763;1276;23222;-86
2022/04/16 17:35:24;;;;;;;11.80;5.00;;;;;;;7.25;55.44;100434.27;104704;1294;24815;-86
2022/04/16 17:38:38;;;;;;;;;;;;;;;;;;;;;
2022/04/16 17:42:15;;;;;;;46.40;21.60;;;;;;;7.05;55.58;100431.63;104305;1294;22613;-88
2022/04/16 17:45:29;;;;;;;127.70;35.90;;;;;;;6.93;55.40;100429.59;104385;1293;24308;-87
2022/04/16 17:48:51;;;;;;;183.50;45.00;;;;;;;6.88;55.53;100431.38;104294;1294;22929;-84
2022/04/16 17:55:53;;;;;;;;;;;;;;;;;;;;;
2022/04/16 17:59:19;;;;;;;;;;;;;;;;;;;;;
2022/04/16 18:02:38;;;;;;;22.50;8.80;;;;;;;5.99;56.27;100451.29;104439;1294;22592;-85
2022/04/16 18:05:58;;;;;;;37.50;12.50;;;;;;;5.76;56.39;100451.62;104526;1293;26758;-85
2022/04/16 18:09:20;;;;;;;;;;;;;;;;;;;;;
2022/04/16 18:17:07;;;;;;;;;;;;;;;;;;;;;
2022/04/16 18:31:43;;;;;;;46.60;19.10;;;;;;;4.65;56.77;100468.84;106040;1277;22565;-86
2022/04/16 18:38:05;;;;;;;;;;;;;;;;;;;;;
2022/04/16 18:41:34;;;;;;;;;;;;;;;;;;;;;
2022/04/16 18:49:33;;;;;;;38.50;16.00;;;;;;;4.04;57.20;100476.98;105654;1281;23925;-85
2022/04/16 18:52:26;;;;;;;41.10;17.10;;;;;;;3.99;57.22;100480.64;105682;1281;24762;-86
2022/04/16 18:55:37;;;;;;;;;;;;;;;;;;;;;
2022/04/16 18:59:59;;;;;;;;;;;;;;;;;;;;;
2022/04/16 19:07:47;;;;;;;37.60;17.10;;;;;;;3.93;57.31;100481.11;106582;1274;22529;-85
2022/04/16 19:10:47;;;;;;;;;;;;;;;;;;;;;
2022/04/16 20:17:41;;;;;;;12.30;5.20;;;;;;;3.68;58.23;100495.56;105436;1287;22631;-87
2022/04/16 20:21:57;;;;;;;;;;;;;;;;;;;;;
2022/04/16 20:26:34;;;;;;;11.50;5.10;;;;;;;3.59;58.01;100491.36;104164;1297;22795;-87
2022/04/16 20:49:28;;;;;;;;;;;;;;;;;;;;;
2022/04/16 20:57:16;;;;;;;;;;;;;;;;;;;;;
2022/04/16 21:00:49;;;;;;;;;;;;;;;;;;;;;
2022/04/16 21:04:22;;;;;;;;;;;;;;;;;;;;;
2022/04/16 21:08:26;;;;;;;28.70;11.40;;;;;;;3.51;58.34;100473.75;106262;1274;22551;-86
2022/04/16 21:11:48;;;;;;;;;;;;;;;;;;;;;
2022/04/16 21:31:30;;;;;;;;;;;;;;;;;;;;;
2022/04/16 21:56:14;;;;;;;;;;;;;;;;;;;;;
2022/04/16 22:17:01;;;;;;;;;;;;;;;;;;;;;
2022/04/16 22:20:38;;;;;;;16.00;6.70;;;;;;;3.89;59.77;100466.78;106349;1275;22710;-86
2022/04/16 22:28:46;;;;;;;16.40;7.70;;;;;;;3.73;59.87;100466.92;103998;1300;22570;-86
2022/04/16 22:32:17;;;;;;;;;;;;;;;;;;;;;
2022/04/16 22:44:09;;;;;;;23.10;9.90;;;;;;;3.30;60.26;100480.33;103469;1303;24291;-87
2022/04/16 22:56:24;;;;;;;27.20;11.30;;;;;;;2.90;60.64;100484.80;105342;1316;548257;-84
2022/04/16 23:04:02;;;;;;;27.20;10.70;;;;;;;2.64;60.78;100487.01;107260;1297;23329;-84
2022/04/16 23:10:54;;;;;;;;;;;;;;;;;;;;;
2022/04/16 23:43:30;;;;;;;25.90;10.30;;;;;;;3.59;61.06;100499.48;107111;1300;22525;-85
